sensor_id;sensor_type;location;lat;lon;timestamp;pressure;altitude;pressure_sealevel;temperature;humidity
4705;BME280;2366;51.332;6.610;2022-07-12T00:01:53;102269.25;;;19.27;73.18
4705;BME280;2366;51.332;6.610;2022-07-12T00:04:19;102267.50;;;19.15;73.33
4705;BME280;2366;51.332;6.610;2022-07-12T00:06:44;102270.53;;;19.11;73.55
4705;BME280;2366;51.332;6.610;2022-07-12T00:09:10;102277.94;;;19.07;73.81
4705;BME280;2366;51.332;6.610;2022-07-12T00:11:36;102269.03;;;19.06;73.97
4705;BME280;2366;51.332;6.610;2022-07-12T00:14:03;102277.19;;;19.05;73.87
4705;BME280;2366;51.332;6.610;2022-07-12T00:16:30;102273.00;;;19.01;73.84
4705;BME280;2366;51.332;6.610;2022-07-12T00:18:55;102266.97;;;18.97;74.08
4705;BME280;2366;51.332;6.610;2022-07-12T00:21:21;102271.00;;;18.92;74.10
4705;BME280;2366;51.332;6.610;2022-07-12T00:23:46;102276.69;;;18.87;74.28
4705;BME280;2366;51.332;6.610;2022-07-12T00:26:12;102274.00;;;18.87;74.44
4705;BME280;2366;51.332;6.610;2022-07-12T00:28:37;102274.13;;;18.85;74.41
4705;BME280;2366;51.332;6.610;2022-07-12T00:31:03;102263.47;;;18.84;74.35
4705;BME280;2366;51.332;6.610;2022-07-12T00:33:29;102258.94;;;18.84;74.54
4705;BME280;2366;51.332;6.610;2022-07-12T00:35:55;102257.91;;;18.87;74.63
4705;BME280;2366;51.332;6.610;2022-07-12T00:38:20;102246.41;;;18.85;74.41
4705;BME280;2366;51.332;6.610;2022-07-12T00:40:45;102254.22;;;18.75;74.46
4705;BME280;2366;51.332;6.610;2022-07-12T00:43:11;102256.16;;;18.73;74.61
4705;BME280;2366;51.332;6.610;2022-07-12T00:45:36;102243.81;;;18.71;74.48
4705;BME280;2366;51.332;6.610;2022-07-12T00:48:02;102236.59;;;18.71;74.52
4705;BME280;2366;51.332;6.610;2022-07-12T00:50:27;102238.44;;;18.71;74.52
4705;BME280;2366;51.332;6.610;2022-07-12T00:52:54;102239.19;;;18.73;74.67
4705;BME280;2366;51.332;6.610;2022-07-12T00:55:21;102226.59;;;18.73;74.42
4705;BME280;2366;51.332;6.610;2022-07-12T00:57:47;102228.53;;;18.71;74.47
4705;BME280;2366;51.332;6.610;2022-07-12T01:00:16;102232.41;;;18.67;74.33
4705;BME280;2366;51.332;6.610;2022-07-12T01:02:42;102229.22;;;18.62;74.40
4705;BME280;2366;51.332;6.610;2022-07-12T01:05:08;102232.75;;;18.62;74.44
4705;BME280;2366;51.332;6.610;2022-07-12T01:07:34;102226.00;;;18.57;74.34
4705;BME280;2366;51.332;6.610;2022-07-12T01:10:00;102230.06;;;18.50;74.44
4705;BME280;2366;51.332;6.610;2022-07-12T01:12:26;102224.19;;;18.44;74.62
4705;BME280;2366;51.332;6.610;2022-07-12T01:14:52;102228.81;;;18.42;74.70
4705;BME280;2366;51.332;6.610;2022-07-12T01:17:20;102227.44;;;18.37;74.86
4705;BME280;2366;51.332;6.610;2022-07-12T01:19:47;102225.03;;;18.32;74.69
4705;BME280;2366;51.332;6.610;2022-07-12T01:22:15;102227.97;;;18.29;74.93
4705;BME280;2366;51.332;6.610;2022-07-12T01:24:41;102225.28;;;18.29;74.87
4705;BME280;2366;51.332;6.610;2022-07-12T01:27:07;102229.78;;;18.29;75.00
4705;BME280;2366;51.332;6.610;2022-07-12T01:29:33;102228.91;;;18.28;75.29
4705;BME280;2366;51.332;6.610;2022-07-12T01:32:02;102240.72;;;18.25;74.91
4705;BME280;2366;51.332;6.610;2022-07-12T01:34:49;102233.84;;;18.21;74.97
4705;BME280;2366;51.332;6.610;2022-07-12T01:37:16;102245.66;;;18.19;74.81
4705;BME280;2366;51.332;6.610;2022-07-12T01:39:44;102242.66;;;18.11;75.00
4705;BME280;2366;51.332;6.610;2022-07-12T01:42:10;102236.56;;;18.09;75.24
4705;BME280;2366;51.332;6.610;2022-07-12T01:44:36;102248.25;;;18.08;75.11
4705;BME280;2366;51.332;6.610;2022-07-12T01:47:01;102241.16;;;18.06;75.26
4705;BME280;2366;51.332;6.610;2022-07-12T01:49:27;102253.06;;;18.02;75.35
4705;BME280;2366;51.332;6.610;2022-07-12T01:51:55;102260.38;;;18.00;75.28
4705;BME280;2366;51.332;6.610;2022-07-12T01:54:20;102265.16;;;17.95;75.42
4705;BME280;2366;51.332;6.610;2022-07-12T01:56:46;102258.84;;;17.96;75.37
4705;BME280;2366;51.332;6.610;2022-07-12T01:59:11;102266.06;;;17.96;75.31
4705;BME280;2366;51.332;6.610;2022-07-12T02:01:38;102260.97;;;17.91;75.40
4705;BME280;2366;51.332;6.610;2022-07-12T02:04:04;102263.03;;;17.88;75.59
4705;BME280;2366;51.332;6.610;2022-07-12T02:06:30;102268.50;;;17.86;75.59
4705;BME280;2366;51.332;6.610;2022-07-12T02:08:56;102264.84;;;17.87;75.45
4705;BME280;2366;51.332;6.610;2022-07-12T02:11:21;102265.06;;;17.84;75.28
4705;BME280;2366;51.332;6.610;2022-07-12T02:13:47;102265.34;;;17.79;75.34
4705;BME280;2366;51.332;6.610;2022-07-12T02:16:12;102271.66;;;17.78;75.67
4705;BME280;2366;51.332;6.610;2022-07-12T02:18:38;102273.47;;;17.78;75.62
4705;BME280;2366;51.332;6.610;2022-07-12T02:21:03;102274.44;;;17.77;75.62
4705;BME280;2366;51.332;6.610;2022-07-12T02:23:29;102266.59;;;17.74;75.70
4705;BME280;2366;51.332;6.610;2022-07-12T02:25:54;102272.19;;;17.71;75.50
4705;BME280;2366;51.332;6.610;2022-07-12T02:28:19;102276.69;;;17.70;75.87
4705;BME280;2366;51.332;6.610;2022-07-12T02:30:45;102283.00;;;17.69;75.85
4705;BME280;2366;51.332;6.610;2022-07-12T02:33:12;102284.06;;;17.66;75.92
4705;BME280;2366;51.332;6.610;2022-07-12T02:35:41;102281.59;;;17.63;75.77
4705;BME280;2366;51.332;6.610;2022-07-12T02:38:06;102277.31;;;17.61;75.69
4705;BME280;2366;51.332;6.610;2022-07-12T02:40:31;102276.66;;;17.57;75.97
4705;BME280;2366;51.332;6.610;2022-07-12T02:43:15;102269.53;;;17.56;76.08
4705;BME280;2366;51.332;6.610;2022-07-12T02:45:41;102272.34;;;17.55;76.17
4705;BME280;2366;51.332;6.610;2022-07-12T02:48:06;102278.56;;;17.55;76.02
4705;BME280;2366;51.332;6.610;2022-07-12T02:50:31;102268.59;;;17.57;76.05
4705;BME280;2366;51.332;6.610;2022-07-12T02:52:57;102275.13;;;17.53;75.91
4705;BME280;2366;51.332;6.610;2022-07-12T02:55:22;102269.00;;;17.51;75.98
4705;BME280;2366;51.332;6.610;2022-07-12T02:57:47;102275.13;;;17.53;75.97
4705;BME280;2366;51.332;6.610;2022-07-12T03:00:14;102277.91;;;17.52;75.92
4705;BME280;2366;51.332;6.610;2022-07-12T03:02:39;102279.94;;;17.48;75.98
4705;BME280;2366;51.332;6.610;2022-07-12T03:05:05;102276.28;;;17.49;75.92
4705;BME280;2366;51.332;6.610;2022-07-12T03:07:31;102276.50;;;17.46;75.87
4705;BME280;2366;51.332;6.610;2022-07-12T03:09:56;102272.09;;;17.45;75.75
4705;BME280;2366;51.332;6.610;2022-07-12T03:12:21;102272.31;;;17.42;75.64
4705;BME280;2366;51.332;6.610;2022-07-12T03:14:47;102276.69;;;17.43;75.79
4705;BME280;2366;51.332;6.610;2022-07-12T03:17:12;102288.38;;;17.42;75.47
4705;BME280;2366;51.332;6.610;2022-07-12T03:19:37;102288.38;;;17.42;75.59
4705;BME280;2366;51.332;6.610;2022-07-12T03:22:03;102283.97;;;17.41;75.55
4705;BME280;2366;51.332;6.610;2022-07-12T03:24:28;102275.28;;;17.37;76.05
4705;BME280;2366;51.332;6.610;2022-07-12T03:26:54;102278.06;;;17.36;75.77
4705;BME280;2366;51.332;6.610;2022-07-12T03:29:19;102280.66;;;17.37;75.75
4705;BME280;2366;51.332;6.610;2022-07-12T03:31:45;102271.63;;;17.38;75.81
4705;BME280;2366;51.332;6.610;2022-07-12T03:34:11;102283.22;;;17.39;75.76
4705;BME280;2366;51.332;6.610;2022-07-12T03:36:36;102269.63;;;17.42;75.43
4705;BME280;2366;51.332;6.610;2022-07-12T03:39:02;102275.94;;;17.41;75.55
4705;BME280;2366;51.332;6.610;2022-07-12T03:41:27;102261.19;;;17.48;75.36
4705;BME280;2366;51.332;6.610;2022-07-12T03:43:53;102275.34;;;17.50;75.21
4705;BME280;2366;51.332;6.610;2022-07-12T03:46:18;102270.16;;;17.47;75.35
4705;BME280;2366;51.332;6.610;2022-07-12T03:48:43;102270.91;;;17.49;75.31
4705;BME280;2366;51.332;6.610;2022-07-12T03:51:09;102271.47;;;17.54;75.31
4705;BME280;2366;51.332;6.610;2022-07-12T03:53:34;102265.06;;;17.57;75.18
4705;BME280;2366;51.332;6.610;2022-07-12T03:55:59;102275.41;;;17.76;75.56
4705;BME280;2366;51.332;6.610;2022-07-12T03:58:25;102274.34;;;18.57;75.27
4705;BME280;2366;51.332;6.610;2022-07-12T04:00:50;102281.00;;;19.26;73.33
4705;BME280;2366;51.332;6.610;2022-07-12T04:03:15;102276.13;;;19.80;71.32
4705;BME280;2366;51.332;6.610;2022-07-12T04:05:42;102283.13;;;20.29;69.11
4705;BME280;2366;51.332;6.610;2022-07-12T04:08:07;102294.81;;;20.63;66.61
4705;BME280;2366;51.332;6.610;2022-07-12T04:10:33;102292.38;;;20.94;65.33
4705;BME280;2366;51.332;6.610;2022-07-12T04:12:58;102287.69;;;21.07;63.23
4705;BME280;2366;51.332;6.610;2022-07-12T04:15:23;102292.75;;;20.78;62.29
4705;BME280;2366;51.332;6.610;2022-07-12T04:17:49;102301.56;;;20.69;62.99
4705;BME280;2366;51.332;6.610;2022-07-12T04:20:14;102302.44;;;20.58;62.81
4705;BME280;2366;51.332;6.610;2022-07-12T04:22:40;102309.16;;;20.75;63.22
4705;BME280;2366;51.332;6.610;2022-07-12T04:25:06;102312.00;;;21.51;62.25
4705;BME280;2366;51.332;6.610;2022-07-12T04:27:33;102310.53;;;22.53;59.55
4705;BME280;2366;51.332;6.610;2022-07-12T04:29:58;102318.56;;;23.46;56.46
4705;BME280;2366;51.332;6.610;2022-07-12T04:32:24;102315.03;;;23.94;54.63
4705;BME280;2366;51.332;6.610;2022-07-12T04:34:49;102315.41;;;24.57;53.11
4705;BME280;2366;51.332;6.610;2022-07-12T04:37:14;102304.56;;;25.13;52.08
4705;BME280;2366;51.332;6.610;2022-07-12T04:39:40;102310.16;;;25.75;50.68
4705;BME280;2366;51.332;6.610;2022-07-12T04:42:05;102307.22;;;26.30;49.53
4705;BME280;2366;51.332;6.610;2022-07-12T04:44:30;102307.69;;;26.78;48.54
4705;BME280;2366;51.332;6.610;2022-07-12T04:46:56;102304.97;;;27.20;46.54
4705;BME280;2366;51.332;6.610;2022-07-12T04:49:21;102303.47;;;27.34;45.94
4705;BME280;2366;51.332;6.610;2022-07-12T04:51:46;102303.19;;;27.62;46.29
4705;BME280;2366;51.332;6.610;2022-07-12T04:54:12;102309.00;;;27.83;44.77
4705;BME280;2366;51.332;6.610;2022-07-12T04:56:37;102306.47;;;27.90;44.44
4705;BME280;2366;51.332;6.610;2022-07-12T04:59:03;102298.28;;;27.65;45.40
4705;BME280;2366;51.332;6.610;2022-07-12T05:01:29;102308.47;;;27.80;45.17
4705;BME280;2366;51.332;6.610;2022-07-12T05:03:55;102303.41;;;28.10;45.38
4705;BME280;2366;51.332;6.610;2022-07-12T05:06:20;102301.13;;;28.54;43.23
4705;BME280;2366;51.332;6.610;2022-07-12T05:08:46;102298.34;;;28.62;42.81
4705;BME280;2366;51.332;6.610;2022-07-12T05:11:11;102292.84;;;28.79;43.03
4705;BME280;2366;51.332;6.610;2022-07-12T05:13:37;102295.13;;;28.67;42.70
4705;BME280;2366;51.332;6.610;2022-07-12T05:16:02;102292.94;;;28.38;43.55
4705;BME280;2366;51.332;6.610;2022-07-12T05:18:28;102296.44;;;28.71;43.43
4705;BME280;2366;51.332;6.610;2022-07-12T05:20:54;102287.50;;;29.25;42.33
4705;BME280;2366;51.332;6.610;2022-07-12T05:23:20;102295.56;;;29.73;40.84
4705;BME280;2366;51.332;6.610;2022-07-12T05:25:45;102296.41;;;29.73;40.87
4705;BME280;2366;51.332;6.610;2022-07-12T05:28:11;102295.28;;;30.05;40.25
4705;BME280;2366;51.332;6.610;2022-07-12T05:30:36;102293.09;;;30.01;40.15
4705;BME280;2366;51.332;6.610;2022-07-12T05:33:02;102299.50;;;30.46;39.54
4705;BME280;2366;51.332;6.610;2022-07-12T05:35:27;102298.75;;;30.82;38.67
4705;BME280;2366;51.332;6.610;2022-07-12T05:37:53;102298.81;;;31.03;38.11
4705;BME280;2366;51.332;6.610;2022-07-12T05:40:18;102295.28;;;31.24;38.58
4705;BME280;2366;51.332;6.610;2022-07-12T05:42:44;102300.16;;;31.29;38.56
4705;BME280;2366;51.332;6.610;2022-07-12T05:45:10;102299.09;;;31.08;38.48
4705;BME280;2366;51.332;6.610;2022-07-12T05:47:35;102301.00;;;31.44;37.41
4705;BME280;2366;51.332;6.610;2022-07-12T05:50:01;102302.59;;;31.54;37.21
4705;BME280;2366;51.332;6.610;2022-07-12T05:52:26;102306.88;;;32.06;37.18
4705;BME280;2366;51.332;6.610;2022-07-12T05:55:10;102293.59;;;32.44;36.15
4705;BME280;2366;51.332;6.610;2022-07-12T05:57:35;102291.53;;;32.88;35.53
4705;BME280;2366;51.332;6.610;2022-07-12T06:00:02;102290.50;;;32.95;34.21
4705;BME280;2366;51.332;6.610;2022-07-12T06:02:28;102292.47;;;33.08;33.76
4705;BME280;2366;51.332;6.610;2022-07-12T06:04:53;102298.56;;;33.04;35.06
4705;BME280;2366;51.332;6.610;2022-07-12T06:07:18;102300.13;;;33.26;34.21
4705;BME280;2366;51.332;6.610;2022-07-12T06:09:44;102303.63;;;33.62;33.90
4705;BME280;2366;51.332;6.610;2022-07-12T06:12:09;102304.41;;;33.42;34.19
4705;BME280;2366;51.332;6.610;2022-07-12T06:14:35;102313.06;;;33.39;33.61
4705;BME280;2366;51.332;6.610;2022-07-12T06:17:00;102318.56;;;33.46;34.21
4705;BME280;2366;51.332;6.610;2022-07-12T06:19:26;102319.44;;;34.40;32.70
4705;BME280;2366;51.332;6.610;2022-07-12T06:21:52;102332.78;;;34.63;32.55
4705;BME280;2366;51.332;6.610;2022-07-12T06:24:17;102329.16;;;34.69;32.06
4705;BME280;2366;51.332;6.610;2022-07-12T06:26:42;102334.84;;;34.61;32.04
4705;BME280;2366;51.332;6.610;2022-07-12T06:29:08;102343.28;;;34.86;31.96
4705;BME280;2366;51.332;6.610;2022-07-12T06:31:34;102345.16;;;34.98;31.99
4705;BME280;2366;51.332;6.610;2022-07-12T06:34:00;102348.22;;;35.61;31.08
4705;BME280;2366;51.332;6.610;2022-07-12T06:36:25;102347.25;;;35.80;30.83
4705;BME280;2366;51.332;6.610;2022-07-12T06:38:50;102345.06;;;35.64;30.43
4705;BME280;2366;51.332;6.610;2022-07-12T06:41:16;102352.41;;;35.38;30.90
4705;BME280;2366;51.332;6.610;2022-07-12T06:43:41;102353.91;;;34.75;31.92
4705;BME280;2366;51.332;6.610;2022-07-12T06:46:07;102351.00;;;34.37;33.07
4705;BME280;2366;51.332;6.610;2022-07-12T06:48:33;102358.03;;;35.11;31.68
4705;BME280;2366;51.332;6.610;2022-07-12T06:50:58;102348.66;;;35.57;30.36
4705;BME280;2366;51.332;6.610;2022-07-12T06:53:23;102351.56;;;36.45;29.43
4705;BME280;2366;51.332;6.610;2022-07-12T06:55:49;102353.09;;;36.66;29.96
4705;BME280;2366;51.332;6.610;2022-07-12T06:58:15;102351.66;;;36.93;28.21
4705;BME280;2366;51.332;6.610;2022-07-12T07:00:41;102354.31;;;36.70;29.15
4705;BME280;2366;51.332;6.610;2022-07-12T07:03:07;102336.75;;;36.64;29.87
4705;BME280;2366;51.332;6.610;2022-07-12T07:05:33;102340.09;;;36.85;28.88
4705;BME280;2366;51.332;6.610;2022-07-12T07:07:58;102348.53;;;36.90;28.64
4705;BME280;2366;51.332;6.610;2022-07-12T07:10:25;102339.13;;;37.28;28.12
4705;BME280;2366;51.332;6.610;2022-07-12T07:12:50;102342.19;;;36.89;28.38
4705;BME280;2366;51.332;6.610;2022-07-12T07:15:16;102344.09;;;36.02;30.17
4705;BME280;2366;51.332;6.610;2022-07-12T07:17:42;102350.59;;;36.57;28.94
4705;BME280;2366;51.332;6.610;2022-07-12T07:20:09;102353.53;;;36.81;28.80
4705;BME280;2366;51.332;6.610;2022-07-12T07:22:35;102357.53;;;36.85;29.22
4705;BME280;2366;51.332;6.610;2022-07-12T07:25:00;102344.66;;;37.28;28.29
4705;BME280;2366;51.332;6.610;2022-07-12T07:27:26;102351.13;;;37.21;27.35
4705;BME280;2366;51.332;6.610;2022-07-12T07:29:51;102343.63;;;37.71;27.90
4705;BME280;2366;51.332;6.610;2022-07-12T07:32:35;102339.44;;;37.92;27.04
4705;BME280;2366;51.332;6.610;2022-07-12T07:35:00;102344.56;;;37.65;27.39
4705;BME280;2366;51.332;6.610;2022-07-12T07:37:27;102338.38;;;36.72;28.01
4705;BME280;2366;51.332;6.610;2022-07-12T07:39:52;102346.53;;;36.42;28.83
4705;BME280;2366;51.332;6.610;2022-07-12T07:42:17;102337.81;;;36.19;29.31
4705;BME280;2366;51.332;6.610;2022-07-12T07:44:43;102341.97;;;36.72;28.49
4705;BME280;2366;51.332;6.610;2022-07-12T07:47:09;102344.94;;;37.38;27.78
4705;BME280;2366;51.332;6.610;2022-07-12T07:49:34;102340.84;;;37.29;28.25
4705;BME280;2366;51.332;6.610;2022-07-12T07:51:59;102352.72;;;38.13;27.37
4705;BME280;2366;51.332;6.610;2022-07-12T07:54:25;102341.78;;;38.30;25.77
4705;BME280;2366;51.332;6.610;2022-07-12T07:56:50;102348.22;;;38.00;26.90
4705;BME280;2366;51.332;6.610;2022-07-12T07:59:16;102348.03;;;37.60;27.49
4705;BME280;2366;51.332;6.610;2022-07-12T08:01:41;102344.94;;;37.38;27.26
4705;BME280;2366;51.332;6.610;2022-07-12T08:04:20;102345.75;;;36.53;28.75
4705;BME280;2366;51.332;6.610;2022-07-12T08:06:47;102343.22;;;36.51;28.79
4705;BME280;2366;51.332;6.610;2022-07-12T08:09:12;102336.28;;;36.86;27.07
4705;BME280;2366;51.332;6.610;2022-07-12T08:11:38;102344.16;;;37.00;27.93
4705;BME280;2366;51.332;6.610;2022-07-12T08:14:04;102344.22;;;37.12;27.85
4705;BME280;2366;51.332;6.610;2022-07-12T08:16:31;102346.09;;;37.00;27.85
4705;BME280;2366;51.332;6.610;2022-07-12T08:18:57;102340.22;;;37.08;28.33
4705;BME280;2366;51.332;6.610;2022-07-12T08:21:23;102328.75;;;37.11;27.59
4705;BME280;2366;51.332;6.610;2022-07-12T08:23:49;102329.78;;;37.29;27.83
4705;BME280;2366;51.332;6.610;2022-07-12T08:26:15;102328.38;;;37.50;27.60
4705;BME280;2366;51.332;6.610;2022-07-12T08:28:40;102325.66;;;37.01;28.22
4705;BME280;2366;51.332;6.610;2022-07-12T08:31:07;102322.97;;;36.94;28.96
4705;BME280;2366;51.332;6.610;2022-07-12T08:33:32;102319.88;;;36.72;28.22
4705;BME280;2366;51.332;6.610;2022-07-12T08:35:58;102323.69;;;36.90;27.94
4705;BME280;2366;51.332;6.610;2022-07-12T08:38:23;102315.19;;;36.54;28.47
4705;BME280;2366;51.332;6.610;2022-07-12T08:40:49;102319.03;;;36.28;28.99
4705;BME280;2366;51.332;6.610;2022-07-12T08:43:14;102316.38;;;36.40;28.77
4705;BME280;2366;51.332;6.610;2022-07-12T08:45:40;102310.06;;;35.89;29.52
4705;BME280;2366;51.332;6.610;2022-07-12T08:48:08;102311.78;;;35.27;28.97
4705;BME280;2366;51.332;6.610;2022-07-12T08:50:35;102309.44;;;35.55;28.50
4705;BME280;2366;51.332;6.610;2022-07-12T08:53:01;102305.75;;;35.36;29.84
4705;BME280;2366;51.332;6.610;2022-07-12T08:55:29;102310.00;;;34.94;30.97
4705;BME280;2366;51.332;6.610;2022-07-12T08:57:57;102301.38;;;35.54;28.66
4705;BME280;2366;51.332;6.610;2022-07-12T09:00:23;102306.78;;;35.74;28.76
4705;BME280;2366;51.332;6.610;2022-07-12T09:02:54;102306.19;;;36.40;28.94
4705;BME280;2366;51.332;6.610;2022-07-12T09:05:22;102305.22;;;37.02;27.51
4705;BME280;2366;51.332;6.610;2022-07-12T09:07:48;102301.75;;;36.76;27.69
4705;BME280;2366;51.332;6.610;2022-07-12T09:10:14;102297.91;;;36.40;28.52
4705;BME280;2366;51.332;6.610;2022-07-12T09:12:41;102307.09;;;36.34;29.09
4705;BME280;2366;51.332;6.610;2022-07-12T09:15:17;102306.72;;;35.81;28.60
4705;BME280;2366;51.332;6.610;2022-07-12T09:18:04;102304.63;;;35.76;28.80
4705;BME280;2366;51.332;6.610;2022-07-12T09:20:38;102306.84;;;35.61;28.80
4705;BME280;2366;51.332;6.610;2022-07-12T09:23:06;102314.66;;;35.38;29.83
4705;BME280;2366;51.332;6.610;2022-07-12T09:25:32;102310.16;;;35.76;29.47
4705;BME280;2366;51.332;6.610;2022-07-12T09:27:59;102303.97;;;36.06;28.60
4705;BME280;2366;51.332;6.610;2022-07-12T09:30:26;102308.88;;;36.29;28.77
4705;BME280;2366;51.332;6.610;2022-07-12T09:33:03;102313.91;;;36.13;29.16
4705;BME280;2366;51.332;6.610;2022-07-12T09:38:54;102316.53;;;36.27;27.88
4705;BME280;2366;51.332;6.610;2022-07-12T09:41:23;102312.84;;;35.83;28.63
4705;BME280;2366;51.332;6.610;2022-07-12T09:43:49;102315.84;;;36.06;29.17
4705;BME280;2366;51.332;6.610;2022-07-12T09:46:15;102310.72;;;36.35;28.22
4705;BME280;2366;51.332;6.610;2022-07-12T09:48:41;102313.03;;;35.24;28.12
4705;BME280;2366;51.332;6.610;2022-07-12T09:51:13;102304.13;;;35.29;28.71
4705;BME280;2366;51.332;6.610;2022-07-12T09:53:47;102300.22;;;34.98;29.28
4705;BME280;2366;51.332;6.610;2022-07-12T09:56:15;102307.47;;;34.92;28.75
4705;BME280;2366;51.332;6.610;2022-07-12T10:01:16;102303.63;;;33.62;29.93
4705;BME280;2366;51.332;6.610;2022-07-12T10:03:42;102308.44;;;34.53;30.87
4705;BME280;2366;51.332;6.610;2022-07-12T10:06:09;102306.56;;;35.05;29.84
4705;BME280;2366;51.332;6.610;2022-07-12T10:08:36;102306.53;;;35.44;28.73
4705;BME280;2366;51.332;6.610;2022-07-12T10:11:02;102305.13;;;35.34;27.55
4705;BME280;2366;51.332;6.610;2022-07-12T10:13:27;102302.06;;;35.49;28.40
4705;BME280;2366;51.332;6.610;2022-07-12T10:16:01;102303.69;;;35.89;27.25
4705;BME280;2366;51.332;6.610;2022-07-12T10:18:27;102291.00;;;35.56;27.56
4705;BME280;2366;51.332;6.610;2022-07-12T10:20:53;102302.22;;;35.61;27.51
4705;BME280;2366;51.332;6.610;2022-07-12T10:25:44;102296.31;;;34.67;28.31
4705;BME280;2366;51.332;6.610;2022-07-12T10:28:10;102286.47;;;34.00;29.21
4705;BME280;2366;51.332;6.610;2022-07-12T10:30:49;102292.53;;;33.35;30.07
4705;BME280;2366;51.332;6.610;2022-07-12T10:35:57;102290.00;;;32.79;32.58
4705;BME280;2366;51.332;6.610;2022-07-12T10:38:23;102286.34;;;32.58;31.50
4705;BME280;2366;51.332;6.610;2022-07-12T10:40:51;102278.00;;;32.80;31.38
4705;BME280;2366;51.332;6.610;2022-07-12T10:43:19;102277.09;;;32.72;32.16
4705;BME280;2366;51.332;6.610;2022-07-12T10:45:45;102283.09;;;32.89;31.95
4705;BME280;2366;51.332;6.610;2022-07-12T11:01:31;102284.97;;;32.12;32.46
4705;BME280;2366;51.332;6.610;2022-07-12T11:06:28;102286.84;;;32.40;31.98
4705;BME280;2366;51.332;6.610;2022-07-12T11:09:02;102285.75;;;32.06;30.91
4705;BME280;2366;51.332;6.610;2022-07-12T11:11:34;102281.53;;;31.82;31.62
4705;BME280;2366;51.332;6.610;2022-07-12T11:14:01;102279.25;;;31.86;32.69
4705;BME280;2366;51.332;6.610;2022-07-12T11:16:28;102275.66;;;31.85;34.13
4705;BME280;2366;51.332;6.610;2022-07-12T11:18:54;102267.94;;;31.96;33.04
4705;BME280;2366;51.332;6.610;2022-07-12T11:21:21;102272.84;;;32.00;32.31
4705;BME280;2366;51.332;6.610;2022-07-12T11:23:46;102270.81;;;32.09;32.94
4705;BME280;2366;51.332;6.610;2022-07-12T11:26:13;102263.22;;;32.11;33.42
4705;BME280;2366;51.332;6.610;2022-07-12T11:28:40;102262.44;;;32.17;33.13
4705;BME280;2366;51.332;6.610;2022-07-12T11:31:09;102257.66;;;31.98;32.57
4705;BME280;2366;51.332;6.610;2022-07-12T11:33:50;102243.63;;;31.86;32.38
4705;BME280;2366;51.332;6.610;2022-07-12T11:36:16;102249.38;;;32.19;33.20
4705;BME280;2366;51.332;6.610;2022-07-12T11:38:44;102244.72;;;32.20;32.90
4705;BME280;2366;51.332;6.610;2022-07-12T11:41:11;102240.22;;;32.40;32.62
4705;BME280;2366;51.332;6.610;2022-07-12T11:43:38;102239.38;;;32.46;31.84
4705;BME280;2366;51.332;6.610;2022-07-12T11:46:04;102239.13;;;32.34;32.33
4705;BME280;2366;51.332;6.610;2022-07-12T11:48:30;102240.00;;;32.48;32.11
4705;BME280;2366;51.332;6.610;2022-07-12T11:51:11;102236.78;;;32.73;30.79
4705;BME280;2366;51.332;6.610;2022-07-12T11:53:38;102229.25;;;32.88;30.48
4705;BME280;2366;51.332;6.610;2022-07-12T11:56:05;102217.50;;;33.08;30.24
4705;BME280;2366;51.332;6.610;2022-07-12T11:58:31;102225.75;;;33.28;30.63
4705;BME280;2366;51.332;6.610;2022-07-12T12:01:04;102226.09;;;32.98;31.62
4705;BME280;2366;51.332;6.610;2022-07-12T12:03:30;102219.78;;;32.49;32.14
4705;BME280;2366;51.332;6.610;2022-07-12T12:05:57;102222.44;;;32.29;31.37
4705;BME280;2366;51.332;6.610;2022-07-12T12:08:23;102216.69;;;31.96;31.76
4705;BME280;2366;51.332;6.610;2022-07-12T12:10:59;102215.47;;;31.99;31.90
4705;BME280;2366;51.332;6.610;2022-07-12T12:13:29;102224.84;;;32.11;32.49
4705;BME280;2366;51.332;6.610;2022-07-12T12:15:59;102228.56;;;32.31;31.13
4705;BME280;2366;51.332;6.610;2022-07-12T12:18:36;102229.06;;;32.13;30.65
4705;BME280;2366;51.332;6.610;2022-07-12T12:23:29;102213.94;;;32.24;30.96
4705;BME280;2366;51.332;6.610;2022-07-12T12:28:50;102214.00;;;32.38;32.35
4705;BME280;2366;51.332;6.610;2022-07-12T12:31:17;102211.88;;;32.33;32.46
4705;BME280;2366;51.332;6.610;2022-07-12T12:33:45;102206.44;;;32.46;31.41
4705;BME280;2366;51.332;6.610;2022-07-12T12:36:21;102211.03;;;32.32;31.36
4705;BME280;2366;51.332;6.610;2022-07-12T12:38:48;102203.44;;;32.34;32.15
4705;BME280;2366;51.332;6.610;2022-07-12T12:41:14;102206.13;;;32.56;32.42
4705;BME280;2366;51.332;6.610;2022-07-12T12:43:41;102210.84;;;32.82;30.81
4705;BME280;2366;51.332;6.610;2022-07-12T12:46:07;102207.88;;;32.70;30.87
4705;BME280;2366;51.332;6.610;2022-07-12T12:48:33;102209.25;;;32.53;31.12
4705;BME280;2366;51.332;6.610;2022-07-12T12:53:28;102204.56;;;33.02;29.78
4705;BME280;2366;51.332;6.610;2022-07-12T12:55:54;102204.16;;;33.11;30.15
4705;BME280;2366;51.332;6.610;2022-07-12T12:58:22;102205.44;;;33.15;30.66
4705;BME280;2366;51.332;6.610;2022-07-12T13:00:49;102198.47;;;33.06;29.18
4705;BME280;2366;51.332;6.610;2022-07-12T13:03:17;102197.16;;;33.02;28.38
4705;BME280;2366;51.332;6.610;2022-07-12T13:05:44;102194.06;;;33.12;28.86
4705;BME280;2366;51.332;6.610;2022-07-12T13:08:11;102199.97;;;33.29;29.39
4705;BME280;2366;51.332;6.610;2022-07-12T13:10:38;102189.22;;;33.34;29.31
4705;BME280;2366;51.332;6.610;2022-07-12T13:13:04;102193.44;;;33.30;27.82
4705;BME280;2366;51.332;6.610;2022-07-12T13:15:30;102186.91;;;33.44;28.19
4705;BME280;2366;51.332;6.610;2022-07-12T13:17:55;102180.53;;;33.37;28.02
4705;BME280;2366;51.332;6.610;2022-07-12T13:20:23;102183.06;;;33.52;29.31
4705;BME280;2366;51.332;6.610;2022-07-12T13:22:49;102186.91;;;33.44;28.99
4705;BME280;2366;51.332;6.610;2022-07-12T13:25:14;102172.94;;;33.39;27.76
4705;BME280;2366;51.332;6.610;2022-07-12T13:27:41;102176.50;;;33.26;27.75
4705;BME280;2366;51.332;6.610;2022-07-12T13:30:09;102177.59;;;33.25;27.59
4705;BME280;2366;51.332;6.610;2022-07-12T13:32:36;102177.34;;;33.20;27.58
4705;BME280;2366;51.332;6.610;2022-07-12T13:35:03;102171.84;;;33.20;27.82
4705;BME280;2366;51.332;6.610;2022-07-12T13:37:29;102165.94;;;33.56;28.44
4705;BME280;2366;51.332;6.610;2022-07-12T13:39:55;102166.78;;;33.57;29.07
4705;BME280;2366;51.332;6.610;2022-07-12T13:42:45;102164.03;;;33.57;29.08